Maples, Missouri
Current Conditions -  °F | °C
As of 4:58 PM on Tuesday 21 Oct 2014 (Local Time) from KTBN Reporting Station
Clear Clear  
Wind Chill: 71°   Ceiling: Unl
Heat Index: 71°   Visibility: 7mi
Dew Point: 44°   Wind: 3mph
Humidity: 38%   Direction: 330°NNW
Pressure: 30.09"   Gusts: NA
Location:  37.5023°N, 91.4546°W
Report Text: KTBN 212158Z AUTO 33003KT 7SM CLR 21/07 A3009 RMK AO2 VIS 2 RWY14 SLP189 T02140066
Loading
Personal Weather Stations






























Interactive Weather Map New forecast layout! Learn more

10-Day Weather Forecast

Advertisements
Track Severe Weather on mobile